Sunburg, MN (56289)

7:21 AM CST on January 27, 2015 (GMT -0600)
Lake Florida | Change Station
CLOSE
Current Station
Personal Weather Station
Location: Spicer, MN
Elevation: 1129 ft
Nearby Weather Stations

Elev 1129 ft 45.25 °N, 95.07 °W | Updated 4 seconds ago

Overcast
Overcast
30.7 °F
Feels Like 25 °F
N
5.6
Wind Variable Wind from ESE
Gusts 6.0 mph

Today
High -- | Low -- °F
--% Chance of Precip.
Yesterday
High -- | Low -- °F
Precip. -- in
7:47 AM 5:20 PM
First Quarter, 54% visible
Pressure 30.11 in
Visibility 10.0 miles
Clouds Overcast 800 ft
Windchill 25 °F
Dew Point 28 °F
Humidity 89%
Rainfall 0.00 in
Snow Depth Not available.
UV 0 out of 12
Pollen .10 out of 12
Air Quality Not available.
Flu Activity Not available.
METAR KBDH 271315Z AUTO 11005KT 10SM OVC008 00/M02 A3011 RMK AO2

More Conditions Fewer Conditions

Pressure 30.11 in
Visibility 10.0 miles
Clouds Overcast 800 ft
Windchill 25 °F
Dew Point 28 °F
Humidity 89%
Rainfall 0.00 in
Snow Depth Not available.
UV 0 out of 12
Pollen .10 out of 12
Air Quality Not available.
Flu Activity Not available.
METAR KBDH 271315Z AUTO 11005KT 10SM OVC008 00/M02 A3011 RMK AO2

More Conditions Fewer Conditions

10-Day Weather Forecast

Almanac

Astronomy

Jan. 27, 2015 Rise Set
Actual Time
Civil Twilight
Nautical Twilight
Astronomical Twilight
Moon
Length of Visible Light
Length of Day
Tomorrow will be .
, % of the Moon is Illuminated

Today's Extremes

State Highs State Lows

Community

WunderPhotos

Upload Photos

1,790,611 photos uploaded!

WunderBlogs® & News

Nearby

Air Quality

  Air Quality AQ Index Pollutant
Not available.

Snow Depth

Station Depth Elevation

Earthquake Activity

City Distance Mag. Time & Date
Minimum magnitude displayed is 2.5.

Coastal Water Temperatures

Place Temperature

Nearby Weather Stations